createdAt,value
2022-09-05T00:04:37.843Z,13.50
2022-09-05T00:10:05.775Z,13.40
2022-09-05T00:15:24.382Z,13.40
2022-09-05T00:24:19.987Z,13.20
2022-09-05T00:26:50.190Z,13.30
2022-09-05T00:31:57.399Z,13.20
2022-09-05T00:37:00.176Z,13.30
2022-09-05T00:42:14.773Z,13.20
2022-09-05T00:47:53.932Z,13.10
2022-09-05T00:53:22.167Z,13.10
2022-09-05T00:58:52.626Z,13.00
2022-09-05T01:04:32.631Z,13.00
2022-09-05T01:09:54.096Z,12.90
2022-09-05T01:15:23.423Z,12.80
2022-09-05T01:21:03.073Z,12.90
2022-09-05T01:26:30.338Z,12.80
2022-09-05T01:32:10.326Z,12.70
2022-09-05T01:37:34.392Z,12.70
2022-09-05T01:42:48.742Z,12.60
2022-09-05T01:48:17.436Z,12.60
2022-09-05T01:53:58.440Z,12.50
2022-09-05T01:59:16.896Z,12.50
2022-09-05T02:04:45.094Z,12.40
2022-09-05T02:10:19.199Z,12.40
2022-09-05T02:15:30.050Z,12.40
2022-09-05T02:20:41.090Z,12.30
2022-09-05T02:26:02.426Z,12.20
2022-09-05T02:31:20.962Z,12.20
2022-09-05T02:36:26.395Z,12.20
2022-09-05T02:45:06.151Z,12.10
2022-09-05T02:47:22.610Z,12.10
2022-09-05T02:57:28.390Z,12.10
2022-09-05T02:58:10.637Z,12.00
2022-09-05T03:03:21.399Z,12.00
2022-09-05T03:08:44.259Z,12.00
2022-09-05T03:14:24.215Z,11.90
2022-09-05T03:19:46.143Z,11.80
2022-09-05T03:25:07.560Z,11.80
2022-09-05T03:30:17.590Z,11.70
2022-09-05T03:35:50.888Z,11.70
2022-09-05T03:41:36.771Z,11.70
2022-09-05T03:47:27.055Z,11.60
2022-09-05T03:57:13.047Z,11.50
2022-09-05T03:58:57.166Z,11.30
2022-09-05T04:08:10.294Z,11.30
2022-09-05T04:10:03.834Z,11.30
2022-09-05T04:15:35.544Z,11.10
2022-09-05T04:21:01.912Z,11.10
2022-09-05T04:26:26.036Z,11.10
2022-09-05T04:31:44.489Z,11.10
2022-09-05T04:37:00.852Z,11.10
2022-09-05T04:42:06.413Z,11.10
2022-09-05T04:47:38.129Z,11.20
2022-09-05T04:52:49.144Z,11.30
2022-09-05T04:57:51.568Z,11.40
2022-09-05T05:06:19.740Z,11.50
2022-09-05T05:08:38.759Z,11.90
2022-09-05T05:18:00.729Z,12.20
2022-09-05T05:19:39.455Z,12.50
2022-09-05T05:24:46.351Z,12.70
2022-09-05T05:30:09.382Z,12.90
2022-09-05T05:35:20.498Z,13.20
2022-09-05T05:40:30.426Z,13.50
2022-09-05T05:45:34.438Z,13.80
2022-09-05T05:51:15.130Z,14.10
2022-09-05T05:56:20.548Z,14.50
2022-09-05T06:01:37.913Z,14.60
2022-09-05T06:06:57.007Z,14.80
2022-09-05T06:14:56.699Z,15.10
2022-09-05T06:18:07.329Z,15.10
2022-09-05T06:23:36.651Z,15.60
2022-09-05T06:29:16.720Z,15.90
2022-09-05T06:34:35.804Z,16.30
2022-09-05T06:40:17.346Z,16.40
2022-09-05T06:45:58.527Z,16.60
2022-09-05T06:51:27.060Z,16.50
2022-09-05T06:57:00.705Z,16.80
2022-09-05T07:02:58.440Z,17.20
2022-09-05T07:08:23.092Z,17.20
2022-09-05T07:13:44.677Z,17.30
2022-09-05T07:19:17.924Z,17.50
2022-09-05T07:24:54.844Z,18.20
2022-09-05T07:30:00.635Z,18.60
2022-09-05T07:35:06.491Z,18.60
2022-09-05T07:40:25.410Z,18.80
2022-09-05T07:45:30.071Z,18.60
2022-09-05T07:53:59.221Z,18.50
2022-09-05T07:57:08.247Z,18.90
2022-09-05T08:01:32.929Z,19.00
2022-09-05T08:07:47.771Z,19.40
2022-09-05T08:12:46.641Z,19.80
2022-09-05T08:18:24.012Z,19.90
2022-09-05T08:23:35.490Z,20.10
2022-09-05T08:28:43.988Z,19.90
2022-09-05T08:33:49.654Z,20.10
2022-09-05T08:38:53.287Z,20.40
2022-09-05T08:46:41.199Z,20.70
2022-09-05T08:49:48.030Z,20.30
2022-09-05T08:55:21.839Z,20.50
2022-09-05T09:00:27.630Z,20.60
2022-09-05T09:06:12.888Z,20.80
2022-09-05T09:11:19.135Z,20.90
2022-09-05T09:16:34.483Z,21.10
2022-09-05T09:21:46.430Z,21.30
2022-09-05T09:26:56.817Z,21.40
2022-09-05T09:32:11.455Z,21.20
2022-09-05T09:37:50.774Z,21.60
2022-09-05T09:43:07.270Z,21.50
2022-09-05T09:48:33.341Z,21.80
2022-09-05T09:53:50.964Z,22.10
2022-09-05T09:58:53.401Z,21.90
2022-09-05T10:10:35.650Z,22.00
2022-09-05T10:10:59.632Z,21.80
2022-09-05T10:16:11.699Z,22.30
2022-09-05T10:21:42.629Z,22.10
2022-09-05T10:27:13.144Z,21.90
2022-09-05T10:35:17.785Z,22.30
2022-09-05T10:38:10.303Z,22.50
2022-09-05T10:43:28.269Z,22.30
2022-09-05T10:48:44.647Z,22.50
2022-09-05T10:54:01.332Z,22.80
2022-09-05T11:02:15.658Z,22.70
2022-09-05T11:05:23.774Z,22.60
2022-09-05T11:10:36.815Z,22.80
2022-09-05T11:15:51.218Z,22.60
2022-09-05T11:21:20.125Z,22.70
2022-09-05T11:26:44.068Z,22.90
2022-09-05T11:33:53.505Z,23.00
2022-09-05T11:40:05.888Z,23.10
2022-09-05T11:43:20.038Z,23.20
2022-09-05T11:48:58.377Z,23.00
2022-09-05T11:54:49.219Z,23.10
2022-09-05T12:00:32.975Z,23.30
2022-09-05T12:05:59.019Z,23.20
2022-09-05T12:11:22.073Z,23.50
2022-09-05T12:17:00.701Z,23.30
2022-09-05T12:22:26.520Z,23.40
2022-09-05T12:27:42.550Z,23.30
2022-09-05T12:36:02.539Z,23.60
2022-09-05T12:40:57.720Z,23.60
2022-09-05T12:44:42.166Z,23.30
2022-09-05T12:50:14.418Z,23.40
2022-09-05T12:55:22.335Z,23.30
2022-09-05T13:03:13.347Z,23.50
2022-09-05T13:05:58.368Z,23.40
2022-09-05T13:14:47.604Z,23.50
2022-09-05T13:16:28.881Z,23.60
2022-09-05T13:21:31.698Z,23.60
2022-09-05T13:26:43.378Z,23.40
2022-09-05T13:37:55.781Z,23.70
2022-09-05T13:38:00.413Z,23.60
2022-09-05T13:43:22.423Z,23.80
2022-09-05T13:54:34.080Z,23.40
2022-09-05T13:59:42.160Z,23.40
2022-09-05T14:10:43.481Z,23.40
2022-09-05T14:15:52.686Z,23.00
2022-09-05T14:21:18.051Z,22.60
2022-09-05T14:26:28.998Z,22.50
2022-09-05T14:37:37.220Z,22.50
2022-09-05T14:37:48.806Z,22.70
2022-09-05T14:43:15.041Z,22.60
2022-09-05T14:48:29.011Z,22.70
2022-09-05T15:02:44.407Z,22.60
2022-09-05T15:05:11.385Z,22.60
2022-09-05T15:12:15.236Z,22.60
2022-09-05T15:16:01.976Z,22.50
2022-09-05T15:21:36.599Z,22.40
2022-09-05T15:26:57.699Z,22.40
2022-09-05T15:32:21.561Z,22.30
2022-09-05T15:37:40.984Z,22.00
2022-09-05T15:42:50.232Z,22.00
2022-09-05T15:48:18.267Z,22.00
2022-09-05T15:53:37.651Z,21.70
2022-09-05T15:58:54.004Z,21.60
2022-09-05T16:07:59.851Z,21.60
2022-09-05T16:10:33.769Z,21.40
2022-09-05T16:17:16.932Z,21.40
2022-09-05T16:23:20.435Z,21.20
2022-09-05T16:26:25.872Z,21.10
2022-09-05T16:31:48.451Z,21.00
2022-09-05T16:37:08.779Z,20.80
2022-09-05T16:42:23.996Z,20.70
2022-09-05T16:48:14.755Z,20.50
2022-09-05T16:53:30.692Z,20.50
2022-09-05T16:58:41.259Z,20.30
2022-09-05T17:03:56.321Z,20.10
2022-09-05T17:09:19.893Z,19.90
2022-09-05T17:14:24.492Z,19.90
2022-09-05T17:19:33.750Z,19.70
2022-09-05T17:29:19.042Z,19.50
2022-09-05T17:35:48.410Z,19.00
2022-09-05T17:41:26.604Z,18.80
2022-09-05T17:46:31.983Z,18.70
2022-09-05T17:51:51.219Z,18.40
2022-09-05T17:56:54.352Z,18.20
2022-09-05T18:02:02.909Z,18.00
2022-09-05T18:07:25.641Z,17.90
2022-09-05T18:18:43.663Z,17.50
2022-09-05T18:23:43.709Z,17.40
2022-09-05T18:29:14.454Z,17.30
2022-09-05T18:34:19.988Z,17.20
2022-09-05T18:39:23.516Z,17.10
2022-09-05T18:44:58.910Z,17.00
2022-09-05T18:50:25.266Z,16.90
2022-09-05T18:56:10.356Z,16.90
2022-09-05T19:00:50.236Z,16.80
2022-09-05T19:05:55.416Z,16.70
2022-09-05T19:11:27.402Z,16.70
2022-09-05T19:16:42.184Z,16.60
2022-09-05T19:21:56.187Z,16.60
2022-09-05T19:28:07.324Z,16.30
2022-09-05T19:37:05.920Z,16.20
2022-09-05T19:38:02.882Z,16.10
2022-09-05T19:47:29.028Z,15.90
2022-09-05T19:48:34.433Z,15.90
2022-09-05T19:54:04.469Z,15.70
2022-09-05T19:59:25.196Z,15.60
2022-09-05T20:04:31.978Z,15.40
2022-09-05T20:09:43.476Z,15.30
2022-09-05T20:14:46.202Z,15.30
2022-09-05T20:19:49.716Z,15.10
2022-09-05T20:24:52.600Z,15.00
2022-09-05T20:30:02.536Z,14.90
2022-09-05T20:37:18.465Z,14.90
2022-09-05T20:43:19.151Z,14.90
2022-09-05T20:47:41.986Z,14.80
2022-09-05T20:54:15.601Z,14.90
2022-09-05T20:56:48.243Z,14.80
2022-09-05T21:02:04.857Z,14.70
2022-09-05T21:07:25.880Z,14.60
2022-09-05T21:12:45.520Z,14.60
2022-09-05T21:17:49.604Z,14.70
2022-09-05T21:22:52.232Z,14.50
2022-09-05T21:27:56.664Z,14.50
2022-09-05T21:33:14.547Z,14.50
2022-09-05T21:38:32.527Z,14.40
2022-09-05T21:47:47.651Z,14.50
2022-09-05T21:49:07.713Z,14.40
2022-09-05T21:59:14.556Z,14.40
2022-09-05T21:59:45.420Z,14.40
2022-09-05T22:04:49.743Z,14.20
2022-09-05T22:09:52.162Z,14.30
2022-09-05T22:14:54.538Z,14.20
2022-09-05T22:19:57.026Z,14.40
2022-09-05T22:25:07.805Z,14.10
2022-09-05T22:30:12.774Z,14.10
2022-09-05T22:35:27.154Z,14.10
2022-09-05T22:40:31.414Z,14.10
2022-09-05T22:45:35.837Z,14.00
2022-09-05T22:50:39.353Z,14.00
2022-09-05T22:55:43.621Z,14.00
2022-09-05T23:00:46.248Z,13.90
2022-09-05T23:05:48.770Z,14.00
2022-09-05T23:10:51.214Z,13.90
2022-09-05T23:15:57.788Z,13.90
2022-09-05T23:21:05.339Z,13.70
2022-09-05T23:26:10.594Z,13.80
2022-09-05T23:31:13.343Z,13.80
2022-09-05T23:36:15.876Z,13.90
2022-09-05T23:41:18.272Z,13.80
2022-09-05T23:46:20.899Z,13.70
2022-09-05T23:51:23.376Z,13.60
2022-09-05T23:56:25.859Z,13.70
